sensor_id;sensor_type;location;lat;lon;timestamp;P1;durP1;ratioP1;P2;durP2;ratioP2
74383;SDS011;62824;52.994;-3.936;2023-04-02T00:01:04;1.35;;;1.00;;
74383;SDS011;62824;52.994;-3.936;2023-04-02T00:08:59;3.70;;;1.40;;
74383;SDS011;62824;52.994;-3.936;2023-04-02T00:11:45;4.40;;;1.40;;
74383;SDS011;62824;52.994;-3.936;2023-04-02T00:16:48;2.38;;;1.10;;
74383;SDS011;62824;52.994;-3.936;2023-04-02T00:19:16;3.53;;;1.55;;
74383;SDS011;62824;52.994;-3.936;2023-04-02T00:21:47;4.28;;;1.85;;
74383;SDS011;62824;52.994;-3.936;2023-04-02T00:24:16;2.58;;;2.00;;
74383;SDS011;62824;52.994;-3.936;2023-04-02T00:26:44;4.78;;;1.77;;
74383;SDS011;62824;52.994;-3.936;2023-04-02T00:29:12;5.00;;;1.60;;
74383;SDS011;62824;52.994;-3.936;2023-04-02T00:31:41;5.35;;;2.13;;
74383;SDS011;62824;52.994;-3.936;2023-04-02T00:34:21;3.85;;;1.73;;
74383;SDS011;62824;52.994;-3.936;2023-04-02T00:36:59;2.50;;;1.48;;
74383;SDS011;62824;52.994;-3.936;2023-04-02T00:39:27;2.22;;;1.58;;
74383;SDS011;62824;52.994;-3.936;2023-04-02T00:41:56;4.57;;;1.90;;
74383;SDS011;62824;52.994;-3.936;2023-04-02T00:44:29;2.35;;;1.10;;
74383;SDS011;62824;52.994;-3.936;2023-04-02T00:47:05;2.40;;;1.15;;
74383;SDS011;62824;52.994;-3.936;2023-04-02T00:49:39;2.88;;;1.27;;
74383;SDS011;62824;52.994;-3.936;2023-04-02T00:52:15;1.40;;;1.00;;
74383;SDS011;62824;52.994;-3.936;2023-04-02T00:54:47;3.40;;;1.42;;
74383;SDS011;62824;52.994;-3.936;2023-04-02T00:57:18;3.97;;;1.60;;
74383;SDS011;62824;52.994;-3.936;2023-04-02T00:59:54;2.35;;;2.20;;
74383;SDS011;62824;52.994;-3.936;2023-04-02T01:05:59;7.03;;;2.70;;
74383;SDS011;62824;52.994;-3.936;2023-04-02T01:25:48;2.97;;;0.95;;
74383;SDS011;62824;52.994;-3.936;2023-04-02T01:28:25;2.10;;;1.25;;
74383;SDS011;62824;52.994;-3.936;2023-04-02T01:33:26;2.50;;;0.98;;
74383;SDS011;62824;52.994;-3.936;2023-04-02T01:35:56;2.72;;;1.10;;
74383;SDS011;62824;52.994;-3.936;2023-04-02T01:38:43;1.98;;;1.05;;
74383;SDS011;62824;52.994;-3.936;2023-04-02T01:41:54;1.25;;;1.00;;
74383;SDS011;62824;52.994;-3.936;2023-04-02T01:44:25;2.88;;;1.10;;
74383;SDS011;62824;52.994;-3.936;2023-04-02T01:47:01;3.50;;;1.10;;
74383;SDS011;62824;52.994;-3.936;2023-04-02T01:49:29;2.25;;;1.10;;
74383;SDS011;62824;52.994;-3.936;2023-04-02T01:51:55;1.95;;;0.85;;
74383;SDS011;62824;52.994;-3.936;2023-04-02T01:54:21;2.90;;;1.17;;
74383;SDS011;62824;52.994;-3.936;2023-04-02T01:56:48;2.40;;;1.00;;
74383;SDS011;62824;52.994;-3.936;2023-04-02T01:59:19;1.88;;;1.00;;
74383;SDS011;62824;52.994;-3.936;2023-04-02T02:02:19;5.72;;;1.05;;
74383;SDS011;62824;52.994;-3.936;2023-04-02T02:04:38;1.98;;;0.90;;
74383;SDS011;62824;52.994;-3.936;2023-04-02T02:07:05;1.15;;;1.05;;
74383;SDS011;62824;52.994;-3.936;2023-04-02T02:13:12;8.85;;;1.52;;
74383;SDS011;62824;52.994;-3.936;2023-04-02T02:15:40;2.05;;;1.00;;
74383;SDS011;62824;52.994;-3.936;2023-04-02T02:18:06;1.92;;;1.15;;
74383;SDS011;62824;52.994;-3.936;2023-04-02T02:20:35;1.58;;;1.30;;
74383;SDS011;62824;52.994;-3.936;2023-04-02T02:23:01;3.95;;;1.10;;
74383;SDS011;62824;52.994;-3.936;2023-04-02T02:25:30;3.22;;;1.23;;
74383;SDS011;62824;52.994;-3.936;2023-04-02T02:27:59;2.83;;;1.00;;
74383;SDS011;62824;52.994;-3.936;2023-04-02T02:30:49;2.13;;;1.30;;
74383;SDS011;62824;52.994;-3.936;2023-04-02T02:33:32;2.05;;;1.17;;
74383;SDS011;62824;52.994;-3.936;2023-04-02T02:36:08;2.17;;;1.00;;
74383;SDS011;62824;52.994;-3.936;2023-04-02T02:41:38;2.00;;;1.10;;
74383;SDS011;62824;52.994;-3.936;2023-04-02T02:44:32;3.78;;;1.15;;
74383;SDS011;62824;52.994;-3.936;2023-04-02T02:47:21;1.75;;;1.10;;
74383;SDS011;62824;52.994;-3.936;2023-04-02T02:49:53;1.63;;;1.00;;
74383;SDS011;62824;52.994;-3.936;2023-04-02T02:52:34;3.17;;;1.40;;
74383;SDS011;62824;52.994;-3.936;2023-04-02T02:55:05;1.67;;;1.00;;
74383;SDS011;62824;52.994;-3.936;2023-04-02T02:57:39;3.25;;;1.10;;
74383;SDS011;62824;52.994;-3.936;2023-04-02T03:00:12;4.22;;;1.42;;
74383;SDS011;62824;52.994;-3.936;2023-04-02T03:02:40;1.52;;;1.13;;
74383;SDS011;62824;52.994;-3.936;2023-04-02T03:05:07;1.33;;;1.10;;
74383;SDS011;62824;52.994;-3.936;2023-04-02T03:07:34;2.42;;;1.08;;
74383;SDS011;62824;52.994;-3.936;2023-04-02T03:10:18;2.88;;;1.70;;
74383;SDS011;62824;52.994;-3.936;2023-04-02T03:18:05;3.13;;;1.20;;
74383;SDS011;62824;52.994;-3.936;2023-04-02T03:23:28;2.25;;;1.02;;
74383;SDS011;62824;52.994;-3.936;2023-04-02T03:26:03;3.58;;;1.40;;
74383;SDS011;62824;52.994;-3.936;2023-04-02T03:28:52;1.63;;;0.98;;
74383;SDS011;62824;52.994;-3.936;2023-04-02T03:34:12;1.83;;;1.10;;
74383;SDS011;62824;52.994;-3.936;2023-04-02T03:36:51;4.18;;;1.20;;
74383;SDS011;62824;52.994;-3.936;2023-04-02T03:42:00;1.67;;;1.02;;
74383;SDS011;62824;52.994;-3.936;2023-04-02T03:44:35;2.30;;;1.45;;
74383;SDS011;62824;52.994;-3.936;2023-04-02T03:47:13;3.25;;;1.17;;
74383;SDS011;62824;52.994;-3.936;2023-04-02T03:49:52;4.75;;;1.70;;
74383;SDS011;62824;52.994;-3.936;2023-04-02T03:52:25;3.63;;;1.77;;
74383;SDS011;62824;52.994;-3.936;2023-04-02T03:54:52;2.38;;;1.13;;
74383;SDS011;62824;52.994;-3.936;2023-04-02T03:57:24;4.32;;;1.40;;
74383;SDS011;62824;52.994;-3.936;2023-04-02T04:05:36;4.35;;;1.50;;
74383;SDS011;62824;52.994;-3.936;2023-04-02T04:08:15;5.25;;;1.55;;
74383;SDS011;62824;52.994;-3.936;2023-04-02T04:10:44;1.95;;;1.05;;
74383;SDS011;62824;52.994;-3.936;2023-04-02T04:13:14;4.15;;;1.08;;
74383;SDS011;62824;52.994;-3.936;2023-04-02T04:18:33;2.72;;;1.20;;
74383;SDS011;62824;52.994;-3.936;2023-04-02T04:21:23;2.15;;;1.17;;
74383;SDS011;62824;52.994;-3.936;2023-04-02T04:24:04;1.67;;;1.00;;
74383;SDS011;62824;52.994;-3.936;2023-04-02T04:32:21;3.13;;;1.30;;
74383;SDS011;62824;52.994;-3.936;2023-04-02T04:34:59;3.75;;;1.15;;
74383;SDS011;62824;52.994;-3.936;2023-04-02T04:37:33;2.33;;;1.10;;
74383;SDS011;62824;52.994;-3.936;2023-04-02T04:42:33;3.28;;;1.65;;
74383;SDS011;62824;52.994;-3.936;2023-04-02T04:48:07;1.20;;;1.10;;
74383;SDS011;62824;52.994;-3.936;2023-04-02T04:50:59;2.47;;;1.10;;
74383;SDS011;62824;52.994;-3.936;2023-04-02T04:53:26;1.67;;;0.88;;
74383;SDS011;62824;52.994;-3.936;2023-04-02T04:55:56;1.38;;;0.90;;
74383;SDS011;62824;52.994;-3.936;2023-04-02T05:08:53;2.05;;;1.00;;
74383;SDS011;62824;52.994;-3.936;2023-04-02T05:11:44;4.80;;;1.15;;
74383;SDS011;62824;52.994;-3.936;2023-04-02T05:14:20;2.40;;;1.10;;
74383;SDS011;62824;52.994;-3.936;2023-04-02T05:16:52;2.38;;;1.10;;
74383;SDS011;62824;52.994;-3.936;2023-04-02T05:19:29;1.48;;;1.00;;
74383;SDS011;62824;52.994;-3.936;2023-04-02T05:22:16;2.17;;;1.05;;
74383;SDS011;62824;52.994;-3.936;2023-04-02T05:33:44;2.70;;;1.00;;
74383;SDS011;62824;52.994;-3.936;2023-04-02T05:36:17;1.25;;;1.08;;
74383;SDS011;62824;52.994;-3.936;2023-04-02T05:38:45;3.22;;;1.00;;
74383;SDS011;62824;52.994;-3.936;2023-04-02T05:46:46;4.32;;;1.00;;
74383;SDS011;62824;52.994;-3.936;2023-04-02T05:49:18;1.95;;;1.00;;
74383;SDS011;62824;52.994;-3.936;2023-04-02T05:51:51;2.65;;;1.20;;
74383;SDS011;62824;52.994;-3.936;2023-04-02T05:54:25;4.13;;;1.30;;
74383;SDS011;62824;52.994;-3.936;2023-04-02T05:57:10;3.05;;;1.27;;
74383;SDS011;62824;52.994;-3.936;2023-04-02T05:59:46;2.13;;;1.02;;
74383;SDS011;62824;52.994;-3.936;2023-04-02T06:02:21;1.95;;;1.33;;
74383;SDS011;62824;52.994;-3.936;2023-04-02T06:04:56;2.88;;;0.98;;
74383;SDS011;62824;52.994;-3.936;2023-04-02T06:08:21;2.30;;;1.23;;
74383;SDS011;62824;52.994;-3.936;2023-04-02T06:10:25;4.47;;;1.10;;
74383;SDS011;62824;52.994;-3.936;2023-04-02T06:12:59;1.80;;;1.10;;
74383;SDS011;62824;52.994;-3.936;2023-04-02T06:15:30;1.65;;;0.93;;
74383;SDS011;62824;52.994;-3.936;2023-04-02T06:18:10;2.47;;;1.13;;
74383;SDS011;62824;52.994;-3.936;2023-04-02T06:20:39;3.92;;;1.08;;
74383;SDS011;62824;52.994;-3.936;2023-04-02T06:23:12;3.75;;;1.55;;
74383;SDS011;62824;52.994;-3.936;2023-04-02T06:25:48;4.07;;;1.10;;
74383;SDS011;62824;52.994;-3.936;2023-04-02T06:28:39;1.98;;;0.93;;
74383;SDS011;62824;52.994;-3.936;2023-04-02T06:31:37;3.83;;;1.15;;
74383;SDS011;62824;52.994;-3.936;2023-04-02T06:37:32;3.38;;;1.10;;
74383;SDS011;62824;52.994;-3.936;2023-04-02T06:40:02;1.75;;;0.98;;
74383;SDS011;62824;52.994;-3.936;2023-04-02T06:42:34;1.77;;;1.08;;
74383;SDS011;62824;52.994;-3.936;2023-04-02T06:45:04;1.98;;;1.30;;
74383;SDS011;62824;52.994;-3.936;2023-04-02T06:47:33;2.05;;;0.95;;
74383;SDS011;62824;52.994;-3.936;2023-04-02T06:50:22;3.05;;;1.40;;
74383;SDS011;62824;52.994;-3.936;2023-04-02T06:53:01;3.08;;;1.10;;
74383;SDS011;62824;52.994;-3.936;2023-04-02T06:55:45;1.95;;;1.40;;
74383;SDS011;62824;52.994;-3.936;2023-04-02T06:58:30;1.48;;;1.05;;
74383;SDS011;62824;52.994;-3.936;2023-04-02T07:00:56;4.95;;;1.40;;
74383;SDS011;62824;52.994;-3.936;2023-04-02T07:03:26;4.60;;;1.52;;
74383;SDS011;62824;52.994;-3.936;2023-04-02T07:05:54;3.00;;;1.20;;
74383;SDS011;62824;52.994;-3.936;2023-04-02T07:08:20;8.10;;;2.10;;
74383;SDS011;62824;52.994;-3.936;2023-04-02T07:10:47;4.20;;;1.30;;
74383;SDS011;62824;52.994;-3.936;2023-04-02T07:13:18;5.00;;;1.65;;
74383;SDS011;62824;52.994;-3.936;2023-04-02T07:15:47;6.70;;;1.83;;
74383;SDS011;62824;52.994;-3.936;2023-04-02T07:18:29;3.15;;;1.60;;
74383;SDS011;62824;52.994;-3.936;2023-04-02T07:20:57;2.53;;;1.48;;
74383;SDS011;62824;52.994;-3.936;2023-04-02T07:23:23;6.65;;;2.30;;
74383;SDS011;62824;52.994;-3.936;2023-04-02T07:29:25;5.05;;;1.73;;
74383;SDS011;62824;52.994;-3.936;2023-04-02T07:31:51;4.65;;;2.25;;
74383;SDS011;62824;52.994;-3.936;2023-04-02T07:34:17;4.00;;;1.90;;
74383;SDS011;62824;52.994;-3.936;2023-04-02T07:36:44;4.72;;;2.15;;
74383;SDS011;62824;52.994;-3.936;2023-04-02T07:39:09;5.07;;;2.40;;
74383;SDS011;62824;52.994;-3.936;2023-04-02T07:41:52;3.63;;;2.15;;
74383;SDS011;62824;52.994;-3.936;2023-04-02T07:44:20;5.18;;;2.13;;
74383;SDS011;62824;52.994;-3.936;2023-04-02T07:46:46;8.27;;;2.75;;
74383;SDS011;62824;52.994;-3.936;2023-04-02T07:49:12;4.80;;;2.83;;
74383;SDS011;62824;52.994;-3.936;2023-04-02T07:51:37;5.72;;;2.78;;
74383;SDS011;62824;52.994;-3.936;2023-04-02T07:54:03;4.40;;;2.72;;
74383;SDS011;62824;52.994;-3.936;2023-04-02T07:56:29;5.18;;;2.50;;
74383;SDS011;62824;52.994;-3.936;2023-04-02T07:58:55;6.13;;;3.08;;
74383;SDS011;62824;52.994;-3.936;2023-04-02T08:01:25;5.15;;;3.00;;
74383;SDS011;62824;52.994;-3.936;2023-04-02T08:03:52;7.13;;;2.72;;
74383;SDS011;62824;52.994;-3.936;2023-04-02T08:06:19;6.80;;;3.03;;
74383;SDS011;62824;52.994;-3.936;2023-04-02T08:08:45;4.85;;;3.20;;
74383;SDS011;62824;52.994;-3.936;2023-04-02T08:11:11;5.43;;;3.00;;
74383;SDS011;62824;52.994;-3.936;2023-04-02T08:13:37;4.50;;;2.85;;
74383;SDS011;62824;52.994;-3.936;2023-04-02T08:16:03;5.97;;;2.80;;
74383;SDS011;62824;52.994;-3.936;2023-04-02T08:18:31;4.82;;;2.60;;
74383;SDS011;62824;52.994;-3.936;2023-04-02T08:20:57;3.92;;;3.10;;
74383;SDS011;62824;52.994;-3.936;2023-04-02T08:23:24;3.92;;;2.42;;
74383;SDS011;62824;52.994;-3.936;2023-04-02T08:25:51;6.35;;;3.10;;
74383;SDS011;62824;52.994;-3.936;2023-04-02T08:28:17;3.97;;;2.63;;
74383;SDS011;62824;52.994;-3.936;2023-04-02T08:30:44;5.47;;;2.95;;
74383;SDS011;62824;52.994;-3.936;2023-04-02T08:33:09;4.75;;;2.30;;
74383;SDS011;62824;52.994;-3.936;2023-04-02T08:35:36;4.50;;;2.17;;
74383;SDS011;62824;52.994;-3.936;2023-04-02T08:38:01;6.65;;;3.05;;
74383;SDS011;62824;52.994;-3.936;2023-04-02T08:40:32;3.60;;;2.00;;
74383;SDS011;62824;52.994;-3.936;2023-04-02T08:46:29;4.45;;;2.00;;
74383;SDS011;62824;52.994;-3.936;2023-04-02T08:49:10;3.30;;;2.25;;
74383;SDS011;62824;52.994;-3.936;2023-04-02T08:51:39;5.88;;;2.10;;
74383;SDS011;62824;52.994;-3.936;2023-04-02T08:59:14;1.60;;;1.20;;
74383;SDS011;62824;52.994;-3.936;2023-04-02T09:02:04;2.87;;;1.43;;
74383;SDS011;62824;52.994;-3.936;2023-04-02T09:04:47;2.90;;;1.50;;
74383;SDS011;62824;52.994;-3.936;2023-04-02T09:07:14;3.03;;;1.48;;
74383;SDS011;62824;52.994;-3.936;2023-04-02T09:09:41;3.10;;;1.60;;
74383;SDS011;62824;52.994;-3.936;2023-04-02T09:12:22;2.97;;;1.40;;
74383;SDS011;62824;52.994;-3.936;2023-04-02T09:17:30;2.88;;;1.30;;
74383;SDS011;62824;52.994;-3.936;2023-04-02T09:19:58;1.98;;;1.00;;
74383;SDS011;62824;52.994;-3.936;2023-04-02T09:22:26;5.78;;;2.85;;
74383;SDS011;62824;52.994;-3.936;2023-04-02T09:24:57;2.33;;;1.10;;
74383;SDS011;62824;52.994;-3.936;2023-04-02T09:27:28;2.60;;;1.00;;
74383;SDS011;62824;52.994;-3.936;2023-04-02T09:29:55;1.00;;;0.90;;
74383;SDS011;62824;52.994;-3.936;2023-04-02T09:38:19;1.92;;;1.10;;
74383;SDS011;62824;52.994;-3.936;2023-04-02T09:41:05;3.15;;;1.10;;
74383;SDS011;62824;52.994;-3.936;2023-04-02T09:43:42;0.90;;;0.85;;
74383;SDS011;62824;52.994;-3.936;2023-04-02T09:49:00;1.15;;;0.73;;
74383;SDS011;62824;52.994;-3.936;2023-04-02T09:51:29;1.80;;;1.45;;
74383;SDS011;62824;52.994;-3.936;2023-04-02T09:56:27;1.73;;;0.70;;
74383;SDS011;62824;52.994;-3.936;2023-04-02T10:09:59;1.40;;;1.05;;
74383;SDS011;62824;52.994;-3.936;2023-04-02T10:12:29;2.55;;;1.30;;
74383;SDS011;62824;52.994;-3.936;2023-04-02T10:15:02;1.17;;;0.90;;
74383;SDS011;62824;52.994;-3.936;2023-04-02T10:17:31;2.65;;;1.13;;
74383;SDS011;62824;52.994;-3.936;2023-04-02T10:20:02;2.13;;;0.93;;
74383;SDS011;62824;52.994;-3.936;2023-04-02T10:22:36;2.20;;;1.45;;
74383;SDS011;62824;52.994;-3.936;2023-04-02T10:25:04;1.27;;;1.15;;
74383;SDS011;62824;52.994;-3.936;2023-04-02T10:30:29;1.63;;;1.02;;
74383;SDS011;62824;52.994;-3.936;2023-04-02T10:48:50;2.22;;;1.15;;
74383;SDS011;62824;52.994;-3.936;2023-04-02T10:56:56;2.88;;;1.50;;
74383;SDS011;62824;52.994;-3.936;2023-04-02T10:59:36;3.53;;;1.90;;
74383;SDS011;62824;52.994;-3.936;2023-04-02T11:02:23;5.68;;;1.73;;
74383;SDS011;62824;52.994;-3.936;2023-04-02T11:04:57;2.72;;;2.03;;
74383;SDS011;62824;52.994;-3.936;2023-04-02T11:07:27;3.38;;;1.40;;
74383;SDS011;62824;52.994;-3.936;2023-04-02T11:09:59;2.30;;;1.20;;
74383;SDS011;62824;52.994;-3.936;2023-04-02T11:15:15;3.58;;;1.17;;
74383;SDS011;62824;52.994;-3.936;2023-04-02T11:17:44;2.83;;;1.40;;
74383;SDS011;62824;52.994;-3.936;2023-04-02T11:26:41;5.53;;;1.88;;
74383;SDS011;62824;52.994;-3.936;2023-04-02T11:37:09;2.50;;;1.40;;
74383;SDS011;62824;52.994;-3.936;2023-04-02T11:39:55;1.67;;;1.17;;
74383;SDS011;62824;52.994;-3.936;2023-04-02T11:44:52;2.90;;;1.50;;
74383;SDS011;62824;52.994;-3.936;2023-04-02T11:47:21;2.38;;;1.20;;
74383;SDS011;62824;52.994;-3.936;2023-04-02T11:52:24;2.25;;;1.25;;
74383;SDS011;62824;52.994;-3.936;2023-04-02T11:54:54;2.85;;;1.33;;
74383;SDS011;62824;52.994;-3.936;2023-04-02T12:05:53;1.10;;;0.90;;
74383;SDS011;62824;52.994;-3.936;2023-04-02T12:11:00;2.10;;;1.15;;
74383;SDS011;62824;52.994;-3.936;2023-04-02T12:16:55;1.98;;;1.10;;
74383;SDS011;62824;52.994;-3.936;2023-04-02T12:19:22;1.67;;;0.90;;
74383;SDS011;62824;52.994;-3.936;2023-04-02T12:21:49;2.20;;;1.00;;
74383;SDS011;62824;52.994;-3.936;2023-04-02T12:24:21;1.77;;;0.90;;
74383;SDS011;62824;52.994;-3.936;2023-04-02T12:26:48;2.65;;;0.90;;
74383;SDS011;62824;52.994;-3.936;2023-04-02T12:29:30;2.25;;;0.95;;
74383;SDS011;62824;52.994;-3.936;2023-04-02T12:31:57;1.35;;;0.93;;
74383;SDS011;62824;52.994;-3.936;2023-04-02T12:34:25;1.08;;;0.95;;
74383;SDS011;62824;52.994;-3.936;2023-04-02T12:36:56;2.13;;;1.40;;
74383;SDS011;62824;52.994;-3.936;2023-04-02T12:39:30;3.08;;;1.50;;
74383;SDS011;62824;52.994;-3.936;2023-04-02T12:41:57;2.45;;;1.30;;
74383;SDS011;62824;52.994;-3.936;2023-04-02T12:44:25;1.45;;;1.33;;
74383;SDS011;62824;52.994;-3.936;2023-04-02T12:46:53;1.65;;;1.30;;
74383;SDS011;62824;52.994;-3.936;2023-04-02T12:49:30;2.88;;;1.73;;
74383;SDS011;62824;52.994;-3.936;2023-04-02T12:52:15;3.33;;;2.10;;
74383;SDS011;62824;52.994;-3.936;2023-04-02T12:54:51;2.10;;;1.30;;
74383;SDS011;62824;52.994;-3.936;2023-04-02T12:57:27;1.40;;;1.27;;
74383;SDS011;62824;52.994;-3.936;2023-04-02T13:03:38;2.67;;;1.30;;
74383;SDS011;62824;52.994;-3.936;2023-04-02T13:06:16;1.67;;;1.25;;
74383;SDS011;62824;52.994;-3.936;2023-04-02T13:11:14;1.25;;;1.10;;
74383;SDS011;62824;52.994;-3.936;2023-04-02T13:13:41;2.45;;;1.02;;
74383;SDS011;62824;52.994;-3.936;2023-04-02T13:18:39;2.83;;;1.70;;
74383;SDS011;62824;52.994;-3.936;2023-04-02T13:23:41;4.50;;;2.65;;
74383;SDS011;62824;52.994;-3.936;2023-04-02T13:31:33;1.92;;;1.50;;
74383;SDS011;62824;52.994;-3.936;2023-04-02T13:33:59;4.70;;;2.53;;
74383;SDS011;62824;52.994;-3.936;2023-04-02T13:36:25;2.25;;;1.77;;
74383;SDS011;62824;52.994;-3.936;2023-04-02T13:38:53;5.88;;;2.90;;
74383;SDS011;62824;52.994;-3.936;2023-04-02T13:41:23;3.95;;;1.90;;
74383;SDS011;62824;52.994;-3.936;2023-04-02T13:43:55;4.70;;;3.60;;
74383;SDS011;62824;52.994;-3.936;2023-04-02T13:46:25;2.47;;;1.40;;
74383;SDS011;62824;52.994;-3.936;2023-04-02T13:48:53;3.33;;;1.50;;
74383;SDS011;62824;52.994;-3.936;2023-04-02T13:51:40;2.25;;;1.33;;
74383;SDS011;62824;52.994;-3.936;2023-04-02T13:54:53;3.08;;;1.50;;
74383;SDS011;62824;52.994;-3.936;2023-04-02T13:57:01;2.10;;;1.73;;
74383;SDS011;62824;52.994;-3.936;2023-04-02T13:59:27;1.70;;;1.38;;
74383;SDS011;62824;52.994;-3.936;2023-04-02T14:01:54;2.47;;;1.40;;
74383;SDS011;62824;52.994;-3.936;2023-04-02T14:04:24;3.72;;;2.50;;
74383;SDS011;62824;52.994;-3.936;2023-04-02T14:09:56;3.13;;;1.80;;
74383;SDS011;62824;52.994;-3.936;2023-04-02T14:12:33;2.50;;;1.48;;
74383;SDS011;62824;52.994;-3.936;2023-04-02T14:18:09;1.83;;;1.50;;
74383;SDS011;62824;52.994;-3.936;2023-04-02T14:20:58;2.47;;;1.40;;
74383;SDS011;62824;52.994;-3.936;2023-04-02T14:43:07;5.63;;;2.92;;
74383;SDS011;62824;52.994;-3.936;2023-04-02T14:51:37;2.70;;;2.22;;
74383;SDS011;62824;52.994;-3.936;2023-04-02T14:56:22;4.78;;;2.58;;
74383;SDS011;62824;52.994;-3.936;2023-04-02T14:58:51;3.60;;;1.98;;
74383;SDS011;62824;52.994;-3.936;2023-04-02T15:01:29;3.28;;;1.95;;
74383;SDS011;62824;52.994;-3.936;2023-04-02T15:04:00;3.25;;;2.38;;
74383;SDS011;62824;52.994;-3.936;2023-04-02T15:06:36;6.72;;;2.30;;
74383;SDS011;62824;52.994;-3.936;2023-04-02T15:09:15;5.87;;;3.13;;
74383;SDS011;62824;52.994;-3.936;2023-04-02T15:11:57;4.82;;;2.05;;
74383;SDS011;62824;52.994;-3.936;2023-04-02T15:14:27;4.05;;;2.65;;
74383;SDS011;62824;52.994;-3.936;2023-04-02T15:16:59;4.05;;;2.30;;
74383;SDS011;62824;52.994;-3.936;2023-04-02T15:19:25;3.55;;;1.88;;
74383;SDS011;62824;52.994;-3.936;2023-04-02T15:21:58;3.45;;;2.00;;
74383;SDS011;62824;52.994;-3.936;2023-04-02T15:27:34;4.53;;;2.85;;
74383;SDS011;62824;52.994;-3.936;2023-04-02T15:30:11;2.97;;;2.00;;
74383;SDS011;62824;52.994;-3.936;2023-04-02T15:32:47;1.85;;;1.52;;
74383;SDS011;62824;52.994;-3.936;2023-04-02T15:38:20;6.40;;;2.22;;
74383;SDS011;62824;52.994;-3.936;2023-04-02T15:54:58;4.22;;;2.03;;
74383;SDS011;62824;52.994;-3.936;2023-04-02T16:00:26;3.83;;;1.97;;
74383;SDS011;62824;52.994;-3.936;2023-04-02T16:11:33;7.35;;;2.33;;
74383;SDS011;62824;52.994;-3.936;2023-04-02T16:14:09;2.70;;;2.05;;
74383;SDS011;62824;52.994;-3.936;2023-04-02T16:16:47;4.35;;;2.80;;
74383;SDS011;62824;52.994;-3.936;2023-04-02T16:19:26;4.13;;;2.15;;
74383;SDS011;62824;52.994;-3.936;2023-04-02T16:22:01;4.47;;;3.20;;
74383;SDS011;62824;52.994;-3.936;2023-04-02T16:24:34;2.58;;;2.13;;
74383;SDS011;62824;52.994;-3.936;2023-04-02T16:27:12;5.13;;;2.10;;
74383;SDS011;62824;52.994;-3.936;2023-04-02T16:43:51;3.47;;;2.80;;
74383;SDS011;62824;52.994;-3.936;2023-04-02T16:48:56;3.40;;;2.83;;
74383;SDS011;62824;52.994;-3.936;2023-04-02T16:54:23;5.05;;;3.28;;
74383;SDS011;62824;52.994;-3.936;2023-04-02T17:02:36;7.53;;;3.05;;
74383;SDS011;62824;52.994;-3.936;2023-04-02T17:07:50;7.35;;;3.53;;
74383;SDS011;62824;52.994;-3.936;2023-04-02T17:10:56;4.20;;;3.28;;
74383;SDS011;62824;52.994;-3.936;2023-04-02T17:13:43;4.47;;;3.38;;
74383;SDS011;62824;52.994;-3.936;2023-04-02T17:20:16;5.68;;;3.35;;
74383;SDS011;62824;52.994;-3.936;2023-04-02T17:22:45;4.50;;;3.45;;
74383;SDS011;62824;52.994;-3.936;2023-04-02T17:25:20;5.38;;;3.80;;
74383;SDS011;62824;52.994;-3.936;2023-04-02T17:27:50;4.55;;;3.65;;
74383;SDS011;62824;52.994;-3.936;2023-04-02T17:30:22;4.90;;;3.95;;
74383;SDS011;62824;52.994;-3.936;2023-04-02T17:33:16;6.28;;;4.18;;
74383;SDS011;62824;52.994;-3.936;2023-04-02T17:43:58;7.15;;;4.50;;
74383;SDS011;62824;52.994;-3.936;2023-04-02T18:00:02;6.57;;;4.45;;
74383;SDS011;62824;52.994;-3.936;2023-04-02T18:02:41;7.53;;;5.60;;
74383;SDS011;62824;52.994;-3.936;2023-04-02T18:05:34;5.13;;;3.97;;
74383;SDS011;62824;52.994;-3.936;2023-04-02T18:13:39;11.68;;;5.95;;
74383;SDS011;62824;52.994;-3.936;2023-04-02T18:45:54;10.00;;;7.57;;
74383;SDS011;62824;52.994;-3.936;2023-04-02T18:51:45;11.25;;;8.10;;
74383;SDS011;62824;52.994;-3.936;2023-04-02T18:54:19;7.70;;;5.85;;
74383;SDS011;62824;52.994;-3.936;2023-04-02T18:56:50;5.30;;;3.95;;
74383;SDS011;62824;52.994;-3.936;2023-04-02T19:01:56;5.07;;;3.25;;
74383;SDS011;62824;52.994;-3.936;2023-04-02T19:04:30;8.57;;;3.75;;
74383;SDS011;62824;52.994;-3.936;2023-04-02T19:07:02;5.32;;;3.80;;
74383;SDS011;62824;52.994;-3.936;2023-04-02T19:09:37;8.80;;;4.75;;
74383;SDS011;62824;52.994;-3.936;2023-04-02T19:12:20;6.95;;;3.92;;
74383;SDS011;62824;52.994;-3.936;2023-04-02T19:14:47;5.60;;;3.42;;
74383;SDS011;62824;52.994;-3.936;2023-04-02T19:19:51;6.10;;;3.33;;
74383;SDS011;62824;52.994;-3.936;2023-04-02T19:28:06;5.70;;;2.63;;
74383;SDS011;62824;52.994;-3.936;2023-04-02T19:42:06;7.07;;;3.30;;
74383;SDS011;62824;52.994;-3.936;2023-04-02T19:44:43;9.02;;;4.30;;
74383;SDS011;62824;52.994;-3.936;2023-04-02T19:47:12;8.13;;;4.20;;
74383;SDS011;62824;52.994;-3.936;2023-04-02T19:49:40;10.13;;;4.50;;
74383;SDS011;62824;52.994;-3.936;2023-04-02T19:55:42;7.82;;;4.55;;
74383;SDS011;62824;52.994;-3.936;2023-04-02T19:58:15;7.32;;;4.70;;
74383;SDS011;62824;52.994;-3.936;2023-04-02T20:00:50;5.82;;;4.13;;
74383;SDS011;62824;52.994;-3.936;2023-04-02T20:03:15;6.25;;;3.65;;
74383;SDS011;62824;52.994;-3.936;2023-04-02T20:05:41;6.40;;;3.75;;
74383;SDS011;62824;52.994;-3.936;2023-04-02T20:08:08;7.10;;;3.80;;
74383;SDS011;62824;52.994;-3.936;2023-04-02T20:10:34;6.47;;;4.07;;
74383;SDS011;62824;52.994;-3.936;2023-04-02T20:13:00;10.73;;;4.20;;
74383;SDS011;62824;52.994;-3.936;2023-04-02T20:15:26;9.88;;;5.32;;
74383;SDS011;62824;52.994;-3.936;2023-04-02T20:17:52;9.43;;;4.53;;
74383;SDS011;62824;52.994;-3.936;2023-04-02T20:20:19;9.35;;;5.03;;
74383;SDS011;62824;52.994;-3.936;2023-04-02T20:22:45;9.30;;;5.00;;
74383;SDS011;62824;52.994;-3.936;2023-04-02T20:25:11;9.32;;;4.32;;
74383;SDS011;62824;52.994;-3.936;2023-04-02T20:27:37;5.68;;;4.32;;
74383;SDS011;62824;52.994;-3.936;2023-04-02T20:30:03;8.15;;;5.03;;
74383;SDS011;62824;52.994;-3.936;2023-04-02T20:32:29;6.97;;;4.82;;
74383;SDS011;62824;52.994;-3.936;2023-04-02T20:34:55;6.78;;;4.70;;
74383;SDS011;62824;52.994;-3.936;2023-04-02T20:37:21;8.10;;;4.63;;
74383;SDS011;62824;52.994;-3.936;2023-04-02T20:46:00;8.77;;;4.72;;
74383;SDS011;62824;52.994;-3.936;2023-04-02T20:48:29;7.75;;;4.50;;
74383;SDS011;62824;52.994;-3.936;2023-04-02T20:50:57;7.28;;;4.03;;
74383;SDS011;62824;52.994;-3.936;2023-04-02T20:53:23;11.80;;;5.57;;
74383;SDS011;62824;52.994;-3.936;2023-04-02T20:55:49;7.72;;;4.50;;
74383;SDS011;62824;52.994;-3.936;2023-04-02T20:58:15;10.48;;;5.45;;
74383;SDS011;62824;52.994;-3.936;2023-04-02T21:00:42;8.85;;;4.75;;
74383;SDS011;62824;52.994;-3.936;2023-04-02T21:03:09;7.82;;;4.97;;
74383;SDS011;62824;52.994;-3.936;2023-04-02T21:05:45;9.23;;;5.50;;
74383;SDS011;62824;52.994;-3.936;2023-04-02T21:08:12;9.57;;;5.18;;
74383;SDS011;62824;52.994;-3.936;2023-04-02T21:10:38;9.07;;;4.80;;
74383;SDS011;62824;52.994;-3.936;2023-04-02T21:13:05;8.07;;;5.10;;
74383;SDS011;62824;52.994;-3.936;2023-04-02T21:15:30;12.02;;;5.25;;
74383;SDS011;62824;52.994;-3.936;2023-04-02T21:17:57;10.02;;;5.07;;
74383;SDS011;62824;52.994;-3.936;2023-04-02T21:20:22;7.80;;;4.97;;
74383;SDS011;62824;52.994;-3.936;2023-04-02T21:22:50;6.57;;;4.45;;
74383;SDS011;62824;52.994;-3.936;2023-04-02T21:25:16;8.77;;;4.38;;
74383;SDS011;62824;52.994;-3.936;2023-04-02T21:27:42;5.55;;;4.00;;
74383;SDS011;62824;52.994;-3.936;2023-04-02T21:30:08;10.57;;;4.30;;
74383;SDS011;62824;52.994;-3.936;2023-04-02T21:32:34;11.65;;;5.00;;
74383;SDS011;62824;52.994;-3.936;2023-04-02T21:35:00;10.30;;;4.85;;
74383;SDS011;62824;52.994;-3.936;2023-04-02T21:37:26;9.20;;;4.13;;
74383;SDS011;62824;52.994;-3.936;2023-04-02T21:39:51;7.00;;;4.20;;
74383;SDS011;62824;52.994;-3.936;2023-04-02T21:42:17;6.60;;;4.15;;
74383;SDS011;62824;52.994;-3.936;2023-04-02T21:44:43;9.57;;;4.53;;
74383;SDS011;62824;52.994;-3.936;2023-04-02T21:47:09;7.05;;;4.32;;